sensor_id;sensor_type;location;lat;lon;timestamp;temperature;humidity
19799;DHT22;10059;59.850;10.454;2023-04-29T00:00:05;1.50;99.90
19799;DHT22;10059;59.850;10.454;2023-04-29T00:02:33;1.50;99.90
19799;DHT22;10059;59.850;10.454;2023-04-29T00:05:00;1.40;99.90
19799;DHT22;10059;59.850;10.454;2023-04-29T00:07:30;1.40;99.90
19799;DHT22;10059;59.850;10.454;2023-04-29T00:09:58;1.30;99.90
19799;DHT22;10059;59.850;10.454;2023-04-29T00:12:25;1.30;99.90
19799;DHT22;10059;59.850;10.454;2023-04-29T00:14:52;1.20;99.90
19799;DHT22;10059;59.850;10.454;2023-04-29T00:17:19;1.40;99.90
19799;DHT22;10059;59.850;10.454;2023-04-29T00:19:46;1.20;99.90
19799;DHT22;10059;59.850;10.454;2023-04-29T00:22:13;1.30;99.90
19799;DHT22;10059;59.850;10.454;2023-04-29T00:24:41;1.30;99.90
19799;DHT22;10059;59.850;10.454;2023-04-29T00:27:08;1.40;99.90
19799;DHT22;10059;59.850;10.454;2023-04-29T00:29:36;1.40;99.90
19799;DHT22;10059;59.850;10.454;2023-04-29T00:32:03;1.40;99.90
19799;DHT22;10059;59.850;10.454;2023-04-29T00:34:30;1.50;99.90
19799;DHT22;10059;59.850;10.454;2023-04-29T00:36:57;1.60;99.90
19799;DHT22;10059;59.850;10.454;2023-04-29T00:39:24;1.80;99.90
19799;DHT22;10059;59.850;10.454;2023-04-29T00:41:52;1.90;99.90
19799;DHT22;10059;59.850;10.454;2023-04-29T00:44:19;1.80;99.90
19799;DHT22;10059;59.850;10.454;2023-04-29T00:46:46;1.90;99.90
19799;DHT22;10059;59.850;10.454;2023-04-29T00:49:13;1.80;99.90
19799;DHT22;10059;59.850;10.454;2023-04-29T00:51:41;1.50;99.90
19799;DHT22;10059;59.850;10.454;2023-04-29T00:54:08;1.40;99.90
19799;DHT22;10059;59.850;10.454;2023-04-29T00:56:36;1.30;99.90
19799;DHT22;10059;59.850;10.454;2023-04-29T00:59:08;1.10;99.90
19799;DHT22;10059;59.850;10.454;2023-04-29T01:01:37;1.00;99.90
19799;DHT22;10059;59.850;10.454;2023-04-29T01:04:04;0.90;99.90
19799;DHT22;10059;59.850;10.454;2023-04-29T01:06:40;0.90;99.90
19799;DHT22;10059;59.850;10.454;2023-04-29T01:09:22;0.90;99.90
19799;DHT22;10059;59.850;10.454;2023-04-29T01:11:57;1.10;99.90
19799;DHT22;10059;59.850;10.454;2023-04-29T01:14:33;1.10;99.90
19799;DHT22;10059;59.850;10.454;2023-04-29T01:17:05;1.10;99.90
19799;DHT22;10059;59.850;10.454;2023-04-29T01:19:43;1.20;99.90
19799;DHT22;10059;59.850;10.454;2023-04-29T01:22:11;1.30;99.90
19799;DHT22;10059;59.850;10.454;2023-04-29T01:24:40;1.40;99.90
19799;DHT22;10059;59.850;10.454;2023-04-29T01:27:16;1.50;99.90
19799;DHT22;10059;59.850;10.454;2023-04-29T01:29:52;1.70;99.90
19799;DHT22;10059;59.850;10.454;2023-04-29T01:32:28;1.70;99.90
19799;DHT22;10059;59.850;10.454;2023-04-29T01:35:02;1.60;99.90
19799;DHT22;10059;59.850;10.454;2023-04-29T01:37:40;1.30;99.90
19799;DHT22;10059;59.850;10.454;2023-04-29T01:40:15;1.40;99.90
19799;DHT22;10059;59.850;10.454;2023-04-29T01:42:45;1.50;99.90
19799;DHT22;10059;59.850;10.454;2023-04-29T01:45:15;1.40;99.90
19799;DHT22;10059;59.850;10.454;2023-04-29T01:47:42;1.40;99.90
19799;DHT22;10059;59.850;10.454;2023-04-29T01:50:10;1.40;99.90
19799;DHT22;10059;59.850;10.454;2023-04-29T01:52:37;1.30;99.90
19799;DHT22;10059;59.850;10.454;2023-04-29T01:55:05;1.40;99.90
19799;DHT22;10059;59.850;10.454;2023-04-29T01:57:33;1.50;99.90
19799;DHT22;10059;59.850;10.454;2023-04-29T02:00:00;1.60;99.90
19799;DHT22;10059;59.850;10.454;2023-04-29T02:02:27;1.70;99.90
19799;DHT22;10059;59.850;10.454;2023-04-29T02:04:54;1.90;99.90
19799;DHT22;10059;59.850;10.454;2023-04-29T02:07:21;2.00;99.90
19799;DHT22;10059;59.850;10.454;2023-04-29T02:09:48;2.20;99.90
19799;DHT22;10059;59.850;10.454;2023-04-29T02:12:15;2.30;99.90
19799;DHT22;10059;59.850;10.454;2023-04-29T02:14:43;2.30;99.90
19799;DHT22;10059;59.850;10.454;2023-04-29T02:17:12;2.50;99.90
19799;DHT22;10059;59.850;10.454;2023-04-29T02:19:39;2.50;99.90
19799;DHT22;10059;59.850;10.454;2023-04-29T02:22:06;2.50;99.90
19799;DHT22;10059;59.850;10.454;2023-04-29T02:24:32;2.50;99.90
19799;DHT22;10059;59.850;10.454;2023-04-29T02:26:59;2.60;99.90
19799;DHT22;10059;59.850;10.454;2023-04-29T02:29:30;2.60;99.90
19799;DHT22;10059;59.850;10.454;2023-04-29T02:31:59;2.60;99.90
19799;DHT22;10059;59.850;10.454;2023-04-29T02:34:26;2.80;99.90
19799;DHT22;10059;59.850;10.454;2023-04-29T02:36:53;2.80;99.90
19799;DHT22;10059;59.850;10.454;2023-04-29T02:39:20;2.70;99.90
19799;DHT22;10059;59.850;10.454;2023-04-29T02:41:47;2.60;99.90
19799;DHT22;10059;59.850;10.454;2023-04-29T02:44:14;2.60;99.90
19799;DHT22;10059;59.850;10.454;2023-04-29T02:46:41;2.40;99.90
19799;DHT22;10059;59.850;10.454;2023-04-29T02:49:12;2.40;99.90
19799;DHT22;10059;59.850;10.454;2023-04-29T02:51:39;2.50;99.90
19799;DHT22;10059;59.850;10.454;2023-04-29T02:54:06;2.60;99.90
19799;DHT22;10059;59.850;10.454;2023-04-29T02:56:33;2.70;99.90
19799;DHT22;10059;59.850;10.454;2023-04-29T02:59:00;2.90;99.90
19799;DHT22;10059;59.850;10.454;2023-04-29T03:01:27;3.00;99.90
19799;DHT22;10059;59.850;10.454;2023-04-29T03:03:54;2.90;99.90
19799;DHT22;10059;59.850;10.454;2023-04-29T03:06:23;2.90;99.90
19799;DHT22;10059;59.850;10.454;2023-04-29T03:08:50;2.70;99.90
19799;DHT22;10059;59.850;10.454;2023-04-29T03:11:18;2.80;99.90
19799;DHT22;10059;59.850;10.454;2023-04-29T03:13:45;3.00;99.90
19799;DHT22;10059;59.850;10.454;2023-04-29T03:16:12;3.00;99.90
19799;DHT22;10059;59.850;10.454;2023-04-29T03:18:41;3.10;99.90
19799;DHT22;10059;59.850;10.454;2023-04-29T03:21:08;3.20;99.90
19799;DHT22;10059;59.850;10.454;2023-04-29T03:23:36;3.10;99.90
19799;DHT22;10059;59.850;10.454;2023-04-29T03:26:04;3.00;99.90
19799;DHT22;10059;59.850;10.454;2023-04-29T03:28:31;3.10;99.90
19799;DHT22;10059;59.850;10.454;2023-04-29T03:30:58;3.20;99.90
19799;DHT22;10059;59.850;10.454;2023-04-29T03:33:25;3.20;99.90
19799;DHT22;10059;59.850;10.454;2023-04-29T03:35:52;3.30;99.90
19799;DHT22;10059;59.850;10.454;2023-04-29T03:38:19;3.30;99.90
19799;DHT22;10059;59.850;10.454;2023-04-29T03:40:47;3.40;99.90
19799;DHT22;10059;59.850;10.454;2023-04-29T03:43:14;3.50;99.90
19799;DHT22;10059;59.850;10.454;2023-04-29T03:45:41;3.60;99.90
19799;DHT22;10059;59.850;10.454;2023-04-29T03:48:08;3.60;99.90
19799;DHT22;10059;59.850;10.454;2023-04-29T03:50:35;3.60;99.90
19799;DHT22;10059;59.850;10.454;2023-04-29T03:53:02;3.80;99.90
19799;DHT22;10059;59.850;10.454;2023-04-29T03:55:29;3.80;99.90
19799;DHT22;10059;59.850;10.454;2023-04-29T03:57:57;3.80;99.90
19799;DHT22;10059;59.850;10.454;2023-04-29T04:00:24;3.80;99.90
19799;DHT22;10059;59.850;10.454;2023-04-29T04:02:51;3.80;99.90
19799;DHT22;10059;59.850;10.454;2023-04-29T04:05:18;3.80;99.90
19799;DHT22;10059;59.850;10.454;2023-04-29T04:07:45;3.80;99.90
19799;DHT22;10059;59.850;10.454;2023-04-29T04:10:12;3.70;99.90
19799;DHT22;10059;59.850;10.454;2023-04-29T04:12:39;3.70;99.90
19799;DHT22;10059;59.850;10.454;2023-04-29T04:15:08;3.80;99.90
19799;DHT22;10059;59.850;10.454;2023-04-29T04:17:35;3.80;99.90
19799;DHT22;10059;59.850;10.454;2023-04-29T04:20:02;3.90;99.90
19799;DHT22;10059;59.850;10.454;2023-04-29T04:22:29;3.90;99.90
19799;DHT22;10059;59.850;10.454;2023-04-29T04:24:56;4.00;99.90
19799;DHT22;10059;59.850;10.454;2023-04-29T04:27:23;4.20;99.90
19799;DHT22;10059;59.850;10.454;2023-04-29T04:29:52;4.20;99.90
19799;DHT22;10059;59.850;10.454;2023-04-29T04:32:21;4.30;99.90
19799;DHT22;10059;59.850;10.454;2023-04-29T04:34:48;4.30;99.90
19799;DHT22;10059;59.850;10.454;2023-04-29T04:37:14;4.30;99.90
19799;DHT22;10059;59.850;10.454;2023-04-29T04:39:42;4.20;99.90
19799;DHT22;10059;59.850;10.454;2023-04-29T04:42:09;4.10;99.90
19799;DHT22;10059;59.850;10.454;2023-04-29T04:44:35;4.10;99.90
19799;DHT22;10059;59.850;10.454;2023-04-29T04:47:03;4.20;99.90
19799;DHT22;10059;59.850;10.454;2023-04-29T04:49:32;4.40;99.90
19799;DHT22;10059;59.850;10.454;2023-04-29T04:51:59;4.40;99.90
19799;DHT22;10059;59.850;10.454;2023-04-29T04:54:25;4.60;99.90
19799;DHT22;10059;59.850;10.454;2023-04-29T04:56:52;4.60;99.90
19799;DHT22;10059;59.850;10.454;2023-04-29T04:59:19;4.70;99.90
19799;DHT22;10059;59.850;10.454;2023-04-29T05:01:46;4.60;99.90
19799;DHT22;10059;59.850;10.454;2023-04-29T05:04:13;4.60;99.90
19799;DHT22;10059;59.850;10.454;2023-04-29T05:06:42;4.50;99.90
19799;DHT22;10059;59.850;10.454;2023-04-29T05:09:09;4.60;99.90
19799;DHT22;10059;59.850;10.454;2023-04-29T05:11:36;4.70;99.90
19799;DHT22;10059;59.850;10.454;2023-04-29T05:14:02;4.80;99.90
19799;DHT22;10059;59.850;10.454;2023-04-29T05:16:29;4.80;99.90
19799;DHT22;10059;59.850;10.454;2023-04-29T05:18:56;4.80;99.90
19799;DHT22;10059;59.850;10.454;2023-04-29T05:21:23;4.90;99.90
19799;DHT22;10059;59.850;10.454;2023-04-29T05:23:51;5.00;99.90
19799;DHT22;10059;59.850;10.454;2023-04-29T05:26:18;5.10;99.90
19799;DHT22;10059;59.850;10.454;2023-04-29T05:28:45;5.20;99.90
19799;DHT22;10059;59.850;10.454;2023-04-29T05:31:12;5.20;99.90
19799;DHT22;10059;59.850;10.454;2023-04-29T05:33:39;5.20;99.90
19799;DHT22;10059;59.850;10.454;2023-04-29T05:36:06;5.30;99.90
19799;DHT22;10059;59.850;10.454;2023-04-29T05:38:33;5.40;99.90
19799;DHT22;10059;59.850;10.454;2023-04-29T05:41:01;5.30;99.90
19799;DHT22;10059;59.850;10.454;2023-04-29T05:43:29;5.20;99.90
19799;DHT22;10059;59.850;10.454;2023-04-29T05:45:55;5.30;99.90
19799;DHT22;10059;59.850;10.454;2023-04-29T05:48:22;5.40;99.90
19799;DHT22;10059;59.850;10.454;2023-04-29T05:50:49;5.40;99.90
19799;DHT22;10059;59.850;10.454;2023-04-29T05:53:16;5.50;99.90
19799;DHT22;10059;59.850;10.454;2023-04-29T05:55:43;5.40;99.90
19799;DHT22;10059;59.850;10.454;2023-04-29T05:58:12;5.60;99.90
19799;DHT22;10059;59.850;10.454;2023-04-29T06:00:39;5.60;99.90
19799;DHT22;10059;59.850;10.454;2023-04-29T06:03:06;5.70;99.90
19799;DHT22;10059;59.850;10.454;2023-04-29T06:05:33;5.90;99.90
19799;DHT22;10059;59.850;10.454;2023-04-29T06:08:00;6.00;99.90
19799;DHT22;10059;59.850;10.454;2023-04-29T06:10:27;6.00;99.90
19799;DHT22;10059;59.850;10.454;2023-04-29T06:12:54;6.10;99.90
19799;DHT22;10059;59.850;10.454;2023-04-29T06:15:22;6.20;99.90
19799;DHT22;10059;59.850;10.454;2023-04-29T06:17:49;6.30;99.90
19799;DHT22;10059;59.850;10.454;2023-04-29T06:20:16;6.40;99.90
19799;DHT22;10059;59.850;10.454;2023-04-29T06:22:43;6.50;99.90
19799;DHT22;10059;59.850;10.454;2023-04-29T06:25:10;6.50;99.90
19799;DHT22;10059;59.850;10.454;2023-04-29T06:27:38;6.70;99.90
19799;DHT22;10059;59.850;10.454;2023-04-29T06:30:06;6.80;99.90
19799;DHT22;10059;59.850;10.454;2023-04-29T06:32:34;6.90;99.90
19799;DHT22;10059;59.850;10.454;2023-04-29T06:35:01;6.90;99.90
19799;DHT22;10059;59.850;10.454;2023-04-29T06:37:28;7.20;99.90
19799;DHT22;10059;59.850;10.454;2023-04-29T06:39:55;7.10;99.90
19799;DHT22;10059;59.850;10.454;2023-04-29T06:42:22;6.80;99.90
19799;DHT22;10059;59.850;10.454;2023-04-29T06:44:48;6.60;99.90
19799;DHT22;10059;59.850;10.454;2023-04-29T06:47:15;6.70;99.90
19799;DHT22;10059;59.850;10.454;2023-04-29T06:49:44;6.90;99.90
19799;DHT22;10059;59.850;10.454;2023-04-29T06:52:10;6.80;99.90
19799;DHT22;10059;59.850;10.454;2023-04-29T06:54:38;6.90;99.90
19799;DHT22;10059;59.850;10.454;2023-04-29T06:57:05;6.90;99.90
19799;DHT22;10059;59.850;10.454;2023-04-29T06:59:31;7.30;99.90
19799;DHT22;10059;59.850;10.454;2023-04-29T07:01:58;8.10;99.90
19799;DHT22;10059;59.850;10.454;2023-04-29T07:04:25;8.90;99.90
19799;DHT22;10059;59.850;10.454;2023-04-29T07:06:53;9.00;99.90
19799;DHT22;10059;59.850;10.454;2023-04-29T07:09:20;8.90;99.90
19799;DHT22;10059;59.850;10.454;2023-04-29T07:11:48;8.90;99.90
19799;DHT22;10059;59.850;10.454;2023-04-29T07:14:15;8.80;99.90
19799;DHT22;10059;59.850;10.454;2023-04-29T07:16:41;8.80;99.90
19799;DHT22;10059;59.850;10.454;2023-04-29T07:19:08;8.70;99.90
19799;DHT22;10059;59.850;10.454;2023-04-29T07:21:37;8.20;99.90
19799;DHT22;10059;59.850;10.454;2023-04-29T07:24:06;8.30;99.90
19799;DHT22;10059;59.850;10.454;2023-04-29T07:26:32;9.00;99.90
19799;DHT22;10059;59.850;10.454;2023-04-29T07:28:59;9.90;99.90
19799;DHT22;10059;59.850;10.454;2023-04-29T07:31:27;9.80;99.90
19799;DHT22;10059;59.850;10.454;2023-04-29T07:33:54;10.40;99.90
19799;DHT22;10059;59.850;10.454;2023-04-29T07:36:21;11.10;99.90
19799;DHT22;10059;59.850;10.454;2023-04-29T07:38:48;11.40;99.90
19799;DHT22;10059;59.850;10.454;2023-04-29T07:41:16;12.40;99.90
19799;DHT22;10059;59.850;10.454;2023-04-29T07:43:43;12.90;99.90
19799;DHT22;10059;59.850;10.454;2023-04-29T07:46:10;12.90;99.90
19799;DHT22;10059;59.850;10.454;2023-04-29T07:48:38;12.80;99.90
19799;DHT22;10059;59.850;10.454;2023-04-29T07:51:05;13.70;99.90
19799;DHT22;10059;59.850;10.454;2023-04-29T07:53:33;13.90;99.90
19799;DHT22;10059;59.850;10.454;2023-04-29T07:56:04;13.60;99.90
19799;DHT22;10059;59.850;10.454;2023-04-29T07:58:33;13.80;99.30
19799;DHT22;10059;59.850;10.454;2023-04-29T08:01:04;13.50;99.90
19799;DHT22;10059;59.850;10.454;2023-04-29T08:03:31;13.90;99.90
19799;DHT22;10059;59.850;10.454;2023-04-29T08:06:00;13.90;97.60
19799;DHT22;10059;59.850;10.454;2023-04-29T08:08:28;13.60;97.90
19799;DHT22;10059;59.850;10.454;2023-04-29T08:10:54;13.50;97.70
19799;DHT22;10059;59.850;10.454;2023-04-29T08:13:21;12.90;98.00
19799;DHT22;10059;59.850;10.454;2023-04-29T08:15:50;13.00;99.30
19799;DHT22;10059;59.850;10.454;2023-04-29T08:18:17;12.20;98.90
19799;DHT22;10059;59.850;10.454;2023-04-29T08:20:44;12.60;98.80
19799;DHT22;10059;59.850;10.454;2023-04-29T08:23:12;12.30;99.10
19799;DHT22;10059;59.850;10.454;2023-04-29T08:25:40;12.20;99.10
19799;DHT22;10059;59.850;10.454;2023-04-29T08:28:07;12.00;99.40
19799;DHT22;10059;59.850;10.454;2023-04-29T08:30:38;11.80;99.90
19799;DHT22;10059;59.850;10.454;2023-04-29T08:33:07;12.10;99.10
19799;DHT22;10059;59.850;10.454;2023-04-29T08:35:34;12.20;98.30
19799;DHT22;10059;59.850;10.454;2023-04-29T08:38:03;11.60;98.30
19799;DHT22;10059;59.850;10.454;2023-04-29T08:40:33;11.40;98.80
19799;DHT22;10059;59.850;10.454;2023-04-29T08:43:00;10.70;99.40
19799;DHT22;10059;59.850;10.454;2023-04-29T08:45:28;10.80;97.70
19799;DHT22;10059;59.850;10.454;2023-04-29T08:47:57;11.00;96.20
19799;DHT22;10059;59.850;10.454;2023-04-29T08:50:27;11.20;97.10
19799;DHT22;10059;59.850;10.454;2023-04-29T08:52:54;11.00;96.10
19799;DHT22;10059;59.850;10.454;2023-04-29T08:55:21;11.20;95.70
19799;DHT22;10059;59.850;10.454;2023-04-29T08:57:49;11.10;95.30
19799;DHT22;10059;59.850;10.454;2023-04-29T09:00:19;11.10;95.60
19799;DHT22;10059;59.850;10.454;2023-04-29T09:02:48;10.90;95.90
19799;DHT22;10059;59.850;10.454;2023-04-29T09:05:16;11.10;96.50
19799;DHT22;10059;59.850;10.454;2023-04-29T09:07:45;11.10;96.30
19799;DHT22;10059;59.850;10.454;2023-04-29T09:10:12;11.20;95.60
19799;DHT22;10059;59.850;10.454;2023-04-29T09:12:40;10.90;94.90
19799;DHT22;10059;59.850;10.454;2023-04-29T09:15:07;11.20;95.20
19799;DHT22;10059;59.850;10.454;2023-04-29T09:17:42;11.00;95.80
19799;DHT22;10059;59.850;10.454;2023-04-29T09:20:26;11.50;96.00
19799;DHT22;10059;59.850;10.454;2023-04-29T09:22:56;11.90;94.90
19799;DHT22;10059;59.850;10.454;2023-04-29T09:25:23;11.50;93.10
19799;DHT22;10059;59.850;10.454;2023-04-29T09:27:52;11.70;94.10
19799;DHT22;10059;59.850;10.454;2023-04-29T09:30:19;12.40;94.50
19799;DHT22;10059;59.850;10.454;2023-04-29T09:33:03;13.00;93.80
19799;DHT22;10059;59.850;10.454;2023-04-29T09:35:31;12.20;92.80
19799;DHT22;10059;59.850;10.454;2023-04-29T09:38:09;12.10;93.80
19799;DHT22;10059;59.850;10.454;2023-04-29T09:40:37;11.60;94.10
19799;DHT22;10059;59.850;10.454;2023-04-29T09:43:11;12.10;94.80
19799;DHT22;10059;59.850;10.454;2023-04-29T09:45:40;11.80;93.70
19799;DHT22;10059;59.850;10.454;2023-04-29T09:48:08;11.70;93.70
19799;DHT22;10059;59.850;10.454;2023-04-29T09:50:36;10.70;96.30
19799;DHT22;10059;59.850;10.454;2023-04-29T09:53:04;11.00;97.80
19799;DHT22;10059;59.850;10.454;2023-04-29T09:55:33;10.70;97.20
19799;DHT22;10059;59.850;10.454;2023-04-29T09:58:00;10.10;98.20
19799;DHT22;10059;59.850;10.454;2023-04-29T10:00:30;10.10;99.10
19799;DHT22;10059;59.850;10.454;2023-04-29T10:02:58;9.90;98.60
19799;DHT22;10059;59.850;10.454;2023-04-29T10:05:27;9.90;99.30
19799;DHT22;10059;59.850;10.454;2023-04-29T10:07:57;11.40;99.10
19799;DHT22;10059;59.850;10.454;2023-04-29T10:10:24;11.80;97.10
19799;DHT22;10059;59.850;10.454;2023-04-29T10:12:55;12.30;95.90
19799;DHT22;10059;59.850;10.454;2023-04-29T10:15:28;12.90;94.30
19799;DHT22;10059;59.850;10.454;2023-04-29T10:17:59;14.10;94.70
19799;DHT22;10059;59.850;10.454;2023-04-29T10:20:28;14.80;92.20
19799;DHT22;10059;59.850;10.454;2023-04-29T10:22:56;15.40;91.20
19799;DHT22;10059;59.850;10.454;2023-04-29T10:25:24;15.30;89.00
19799;DHT22;10059;59.850;10.454;2023-04-29T10:27:55;14.80;90.70
19799;DHT22;10059;59.850;10.454;2023-04-29T10:30:23;14.60;89.90
19799;DHT22;10059;59.850;10.454;2023-04-29T10:32:50;14.50;90.10
19799;DHT22;10059;59.850;10.454;2023-04-29T10:35:18;14.40;90.80
19799;DHT22;10059;59.850;10.454;2023-04-29T10:37:47;13.40;91.80
19799;DHT22;10059;59.850;10.454;2023-04-29T10:40:16;14.00;93.40
19799;DHT22;10059;59.850;10.454;2023-04-29T10:42:47;14.70;93.50
19799;DHT22;10059;59.850;10.454;2023-04-29T10:45:25;14.80;93.10
19799;DHT22;10059;59.850;10.454;2023-04-29T10:48:13;14.90;91.40
19799;DHT22;10059;59.850;10.454;2023-04-29T10:51:01;15.10;91.70
19799;DHT22;10059;59.850;10.454;2023-04-29T10:53:29;15.10;90.80
19799;DHT22;10059;59.850;10.454;2023-04-29T10:56:04;14.60;90.70
19799;DHT22;10059;59.850;10.454;2023-04-29T10:58:36;13.50;91.20
19799;DHT22;10059;59.850;10.454;2023-04-29T11:01:04;14.10;91.40
19799;DHT22;10059;59.850;10.454;2023-04-29T11:03:46;13.90;90.80
19799;DHT22;10059;59.850;10.454;2023-04-29T11:06:13;13.40;91.30
19799;DHT22;10059;59.850;10.454;2023-04-29T11:08:40;14.70;91.50
19799;DHT22;10059;59.850;10.454;2023-04-29T11:11:08;14.70;88.70
19799;DHT22;10059;59.850;10.454;2023-04-29T11:13:37;15.10;90.20
19799;DHT22;10059;59.850;10.454;2023-04-29T11:16:07;15.80;89.70
19799;DHT22;10059;59.850;10.454;2023-04-29T11:18:35;16.00;86.00
19799;DHT22;10059;59.850;10.454;2023-04-29T11:21:11;16.00;88.90
19799;DHT22;10059;59.850;10.454;2023-04-29T11:23:39;15.80;86.20
19799;DHT22;10059;59.850;10.454;2023-04-29T11:26:07;15.30;90.60
19799;DHT22;10059;59.850;10.454;2023-04-29T11:28:35;14.50;91.40
19799;DHT22;10059;59.850;10.454;2023-04-29T11:31:02;14.10;92.20
19799;DHT22;10059;59.850;10.454;2023-04-29T11:33:31;13.10;93.20
19799;DHT22;10059;59.850;10.454;2023-04-29T11:35:59;13.30;97.40
19799;DHT22;10059;59.850;10.454;2023-04-29T11:38:26;13.20;94.00
19799;DHT22;10059;59.850;10.454;2023-04-29T11:40:54;13.20;95.00
19799;DHT22;10059;59.850;10.454;2023-04-29T11:43:21;13.10;96.30
19799;DHT22;10059;59.850;10.454;2023-04-29T11:45:49;13.70;94.10
19799;DHT22;10059;59.850;10.454;2023-04-29T11:48:19;14.30;92.50
19799;DHT22;10059;59.850;10.454;2023-04-29T11:50:48;15.10;91.10
19799;DHT22;10059;59.850;10.454;2023-04-29T11:53:16;15.00;90.20
19799;DHT22;10059;59.850;10.454;2023-04-29T11:55:45;15.40;85.50
19799;DHT22;10059;59.850;10.454;2023-04-29T11:58:13;14.40;88.90
19799;DHT22;10059;59.850;10.454;2023-04-29T12:00:40;13.20;96.60
19799;DHT22;10059;59.850;10.454;2023-04-29T12:03:12;11.70;99.10
19799;DHT22;10059;59.850;10.454;2023-04-29T12:05:39;11.60;99.90
19799;DHT22;10059;59.850;10.454;2023-04-29T12:08:07;11.30;99.20
19799;DHT22;10059;59.850;10.454;2023-04-29T12:10:35;11.30;99.90
19799;DHT22;10059;59.850;10.454;2023-04-29T12:13:02;11.80;99.90
19799;DHT22;10059;59.850;10.454;2023-04-29T12:15:29;11.90;99.90
19799;DHT22;10059;59.850;10.454;2023-04-29T12:17:56;11.60;99.90
19799;DHT22;10059;59.850;10.454;2023-04-29T12:20:23;11.90;99.90
19799;DHT22;10059;59.850;10.454;2023-04-29T12:22:50;12.40;99.90
19799;DHT22;10059;59.850;10.454;2023-04-29T12:25:24;13.10;99.90
19799;DHT22;10059;59.850;10.454;2023-04-29T12:27:58;13.60;99.90
19799;DHT22;10059;59.850;10.454;2023-04-29T12:30:25;13.80;99.90
19799;DHT22;10059;59.850;10.454;2023-04-29T12:32:52;13.90;99.90
19799;DHT22;10059;59.850;10.454;2023-04-29T12:35:20;13.50;99.90
19799;DHT22;10059;59.850;10.454;2023-04-29T12:37:47;14.30;99.90
19799;DHT22;10059;59.850;10.454;2023-04-29T12:40:16;14.80;98.90
19799;DHT22;10059;59.850;10.454;2023-04-29T12:42:46;15.20;95.80
19799;DHT22;10059;59.850;10.454;2023-04-29T12:45:26;15.60;93.00
19799;DHT22;10059;59.850;10.454;2023-04-29T12:47:55;15.50;91.90
19799;DHT22;10059;59.850;10.454;2023-04-29T12:50:28;15.80;90.70
19799;DHT22;10059;59.850;10.454;2023-04-29T12:52:55;14.80;87.60
19799;DHT22;10059;59.850;10.454;2023-04-29T12:55:22;14.30;89.20
19799;DHT22;10059;59.850;10.454;2023-04-29T12:57:51;14.30;89.90
19799;DHT22;10059;59.850;10.454;2023-04-29T13:00:19;14.30;89.10
19799;DHT22;10059;59.850;10.454;2023-04-29T13:02:46;14.60;90.20
19799;DHT22;10059;59.850;10.454;2023-04-29T13:05:13;14.50;88.20
19799;DHT22;10059;59.850;10.454;2023-04-29T13:07:40;14.30;89.10
19799;DHT22;10059;59.850;10.454;2023-04-29T13:10:08;14.10;89.30
19799;DHT22;10059;59.850;10.454;2023-04-29T13:12:36;14.40;87.90
19799;DHT22;10059;59.850;10.454;2023-04-29T13:15:06;14.20;88.50
19799;DHT22;10059;59.850;10.454;2023-04-29T13:17:34;14.50;88.10
19799;DHT22;10059;59.850;10.454;2023-04-29T13:20:01;14.90;86.20
19799;DHT22;10059;59.850;10.454;2023-04-29T13:22:28;14.00;84.30
19799;DHT22;10059;59.850;10.454;2023-04-29T13:24:55;13.70;86.60
19799;DHT22;10059;59.850;10.454;2023-04-29T13:27:22;13.60;86.00
19799;DHT22;10059;59.850;10.454;2023-04-29T13:29:48;13.80;87.20
19799;DHT22;10059;59.850;10.454;2023-04-29T13:32:17;14.40;85.80
19799;DHT22;10059;59.850;10.454;2023-04-29T13:34:45;13.50;84.20
19799;DHT22;10059;59.850;10.454;2023-04-29T13:37:12;13.70;84.00
19799;DHT22;10059;59.850;10.454;2023-04-29T13:39:39;13.60;82.10
19799;DHT22;10059;59.850;10.454;2023-04-29T13:42:06;14.20;82.00
19799;DHT22;10059;59.850;10.454;2023-04-29T13:44:33;14.30;81.10
19799;DHT22;10059;59.850;10.454;2023-04-29T13:47:00;14.90;81.80
19799;DHT22;10059;59.850;10.454;2023-04-29T13:49:29;14.80;78.30
19799;DHT22;10059;59.850;10.454;2023-04-29T13:51:56;14.50;77.80
19799;DHT22;10059;59.850;10.454;2023-04-29T13:54:23;14.60;79.10
19799;DHT22;10059;59.850;10.454;2023-04-29T13:56:51;15.20;80.50
19799;DHT22;10059;59.850;10.454;2023-04-29T13:59:18;15.30;75.40
19799;DHT22;10059;59.850;10.454;2023-04-29T14:01:44;15.50;75.70
19799;DHT22;10059;59.850;10.454;2023-04-29T14:04:11;15.10;74.00
19799;DHT22;10059;59.850;10.454;2023-04-29T14:06:41;14.80;74.30
19799;DHT22;10059;59.850;10.454;2023-04-29T14:09:08;14.00;72.60
19799;DHT22;10059;59.850;10.454;2023-04-29T14:11:35;13.50;73.90
19799;DHT22;10059;59.850;10.454;2023-04-29T14:14:02;13.60;73.50
19799;DHT22;10059;59.850;10.454;2023-04-29T14:16:29;13.80;71.60
19799;DHT22;10059;59.850;10.454;2023-04-29T14:18:56;14.00;71.00
19799;DHT22;10059;59.850;10.454;2023-04-29T14:21:23;14.40;71.30
19799;DHT22;10059;59.850;10.454;2023-04-29T14:23:52;14.00;69.10
19799;DHT22;10059;59.850;10.454;2023-04-29T14:26:18;14.20;72.30
19799;DHT22;10059;59.850;10.454;2023-04-29T14:28:45;14.50;69.60
19799;DHT22;10059;59.850;10.454;2023-04-29T14:31:12;14.10;68.20
19799;DHT22;10059;59.850;10.454;2023-04-29T14:33:41;13.80;69.40
19799;DHT22;10059;59.850;10.454;2023-04-29T14:36:09;14.40;69.60
19799;DHT22;10059;59.850;10.454;2023-04-29T14:38:35;14.70;68.50
19799;DHT22;10059;59.850;10.454;2023-04-29T14:41:04;14.70;67.40
19799;DHT22;10059;59.850;10.454;2023-04-29T14:43:30;14.50;67.00
19799;DHT22;10059;59.850;10.454;2023-04-29T14:45:57;13.80;68.40
19799;DHT22;10059;59.850;10.454;2023-04-29T14:48:24;13.80;68.00
19799;DHT22;10059;59.850;10.454;2023-04-29T14:50:51;13.10;67.40
19799;DHT22;10059;59.850;10.454;2023-04-29T14:53:18;12.60;68.00
19799;DHT22;10059;59.850;10.454;2023-04-29T14:55:45;12.50;68.10
19799;DHT22;10059;59.850;10.454;2023-04-29T14:58:15;12.70;67.80
19799;DHT22;10059;59.850;10.454;2023-04-29T15:00:41;12.30;67.90
19799;DHT22;10059;59.850;10.454;2023-04-29T15:03:08;12.50;66.90
19799;DHT22;10059;59.850;10.454;2023-04-29T15:05:36;12.30;67.70
19799;DHT22;10059;59.850;10.454;2023-04-29T15:08:03;12.40;69.00
19799;DHT22;10059;59.850;10.454;2023-04-29T15:10:30;12.60;69.00
19799;DHT22;10059;59.850;10.454;2023-04-29T15:12:57;12.70;70.30
19799;DHT22;10059;59.850;10.454;2023-04-29T15:15:25;13.00;69.40
19799;DHT22;10059;59.850;10.454;2023-04-29T15:17:52;13.00;69.70
19799;DHT22;10059;59.850;10.454;2023-04-29T15:20:19;13.20;70.60
19799;DHT22;10059;59.850;10.454;2023-04-29T15:22:46;12.70;70.30
19799;DHT22;10059;59.850;10.454;2023-04-29T15:25:13;12.50;71.80
19799;DHT22;10059;59.850;10.454;2023-04-29T15:27:40;12.50;71.30